Terminal Aerodrome Forecast
Issued by NWS

Home | Current Version | Previous Version | Text Only | Print | Product List | Glossary On
Versions: 1 2 3 4 5 6 7 8 9 10 11 12 13 14 15 16 17 18 19 20 21 22 23 24 25 26 27 28 29 30 31 32 33 34 35 36 37 38 39 40 41 42 43 44 45 46 47 48 49 50
000
FTUS45 KBOU 042221 AAB
TAFBJC
TAF AMD
KBJC 042221Z 0422/0518 02007KT 5SM -SN BR SCT010 BKN020 OVC030
      TEMPO 0422/0424 2SM -SN BR OVC009
     FM050000 11007KT P6SM SCT012 BKN025
     FM050300 21007KT P6SM FEW050
     FM051500 25010KT P6SM FEW220=

USA.gov is the U.S. government's official web portal to all federal, state and local government web resources and services.